Time;durP1;ratioP1;P1;durP2;ratioP2;P2;SDS_P1;SDS_P2;PMS_P1;PMS_P2;Temp;Humidity;BMP_temperature;BMP_pressure;BME280_temperature;BME280_humidity;BME280_pressure;Samples;Min_cycle;Max_cycle;Signal;HPM_P1;HPM_P2
2023/01/12 00:03:09;;;;;;;9.20;1.92;;;;;;;9.86;73.41;100367.94;10200854;28;20083;-60
2023/01/12 00:08:10;;;;;;;10.63;1.00;;;;;;;9.97;73.42;100351.44;10206225;28;20086;-60
2023/01/12 00:13:11;;;;;;;10.18;0.93;;;;;;;9.99;73.26;100349.44;10199226;28;20150;-60
2023/01/12 00:18:13;;;;;;;9.45;0.70;;;;;;;10.01;73.11;100346.56;10200542;28;20150;-60
2023/01/12 00:23:14;;;;;;;9.52;1.15;;;;;;;10.06;72.93;100347.72;10208685;28;20078;-62
2023/01/12 00:28:15;;;;;;;6.03;0.95;;;;;;;10.10;72.83;100343.69;10198705;29;20080;-62
2023/01/12 00:33:18;;;;;;;11.20;0.80;;;;;;;10.13;72.71;100340.66;10194133;29;20573;-62
2023/01/12 00:38:20;;;;;;;10.13;1.38;;;;;;;10.11;72.68;100340.00;10199542;28;20541;-62
2023/01/12 00:48:41;;;;;;;13.38;2.60;;;;;;;10.16;72.56;100330.56;10206842;28;20134;-62
2023/01/12 00:53:43;;;;;;;11.20;0.70;;;;;;;10.23;72.30;100329.72;10201922;29;20164;-62
2023/01/12 00:58:44;;;;;;;12.00;1.25;;;;;;;10.16;72.30;100328.72;10196141;28;20138;-61
2023/01/12 01:03:45;;;;;;;8.45;2.42;;;;;;;10.20;72.43;100326.53;10204460;28;20147;-62
2023/01/12 01:08:47;;;;;;;7.57;1.20;;;;;;;10.18;72.20;100328.56;10212874;28;20143;-62
2023/01/12 01:13:48;;;;;;;11.75;1.25;;;;;;;10.22;72.02;100332.56;10210614;28;20146;-62
2023/01/12 01:18:50;;;;;;;8.38;1.17;;;;;;;10.21;71.64;100334.41;10204914;28;20146;-62
2023/01/12 01:23:52;;;;;;;7.95;0.80;;;;;;;10.22;71.98;100321.81;10206881;28;20110;-61
2023/01/12 01:28:53;;;;;;;7.32;0.98;;;;;;;10.25;71.75;100319.63;10211510;29;20144;-62
2023/01/12 01:33:55;;;;;;;5.60;0.88;;;;;;;10.25;71.70;100326.84;10205837;28;20695;-62
2023/01/12 01:38:56;;;;;;;7.13;0.60;;;;;;;10.24;72.04;100322.47;10211384;28;20147;-61
2023/01/12 01:44:00;;;;;;;16.70;1.00;;;;;;;10.13;71.80;100319.16;10204773;28;20138;-62
2023/01/12 01:49:13;;;;;;;8.88;0.90;;;;;;;10.14;71.84;100317.31;10209184;28;20071;-61
2023/01/12 01:54:14;;;;;;;7.10;0.90;;;;;;;10.03;72.30;100326.59;10213517;28;20075;-61
2023/01/12 01:59:21;;;;;;;9.60;0.70;;;;;;;9.90;72.39;100305.66;10219155;28;20063;-61
2023/01/12 02:04:24;;;;;;;14.20;2.33;;;;;;;9.85;72.71;100312.53;10208096;28;20142;-63
2023/01/12 02:09:27;;;;;;;11.40;1.15;;;;;;;9.83;72.84;100314.56;10205980;28;20101;-63
2023/01/12 02:20:07;;;;;;;6.97;0.77;;;;;;;9.59;73.45;100300.19;10206220;28;20410;-62
2023/01/12 02:25:18;;;;;;;5.18;0.50;;;;;;;9.60;73.57;100285.78;10203621;28;20514;-62
2023/01/12 02:30:31;;;;;;;8.60;2.00;;;;;;;9.49;73.94;100267.34;10198519;28;20147;-62
2023/01/12 02:35:45;;;;;;;10.77;2.20;;;;;;;9.47;74.22;100267.50;10198077;28;20150;-61
2023/01/12 02:40:47;;;;;;;11.48;0.80;;;;;;;9.51;74.36;100263.47;10200505;28;20138;-62
2023/01/12 02:46:03;;;;;;;10.95;0.50;;;;;;;9.59;73.99;100259.94;10202547;28;20143;-62
2023/01/12 02:51:10;;;;;;;8.75;1.25;;;;;;;9.65;73.96;100259.25;10183609;29;20092;-62
2023/01/12 02:56:26;;;;;;;6.93;0.60;;;;;;;9.75;73.79;100255.53;10204524;28;20130;-63
2023/01/12 03:01:29;;;;;;;13.90;0.85;;;;;;;9.84;73.62;100266.06;10196086;28;20464;-63
2023/01/12 03:06:42;;;;;;;14.30;0.80;;;;;;;9.91;73.25;100269.75;10191966;28;20051;-64
2023/01/12 03:11:47;;;;;;;9.73;1.52;;;;;;;10.00;73.05;100258.97;10200076;28;20150;-63
2023/01/12 03:16:52;;;;;;;7.47;1.08;;;;;;;10.07;72.96;100268.84;10201633;28;20373;-64
2023/01/12 03:21:58;;;;;;;6.80;1.20;;;;;;;10.12;72.74;100266.44;10202630;28;20138;-64
2023/01/12 03:27:12;;;;;;;7.10;1.00;;;;;;;10.17;72.81;100249.81;10196396;28;20139;-64
2023/01/12 03:32:14;;;;;;;13.18;1.25;;;;;;;10.20;72.49;100240.56;10202491;28;20150;-64
2023/01/12 03:37:35;;;;;;;9.85;1.30;;;;;;;10.23;72.73;100245.56;10207527;29;20146;-63
2023/01/12 03:42:51;;;;;;;10.73;0.60;;;;;;;10.24;72.39;100241.88;10191786;29;20087;-62
2023/01/12 03:47:59;;;;;;;15.98;2.80;;;;;;;10.28;72.49;100235.97;10187726;28;20599;-64
2023/01/12 03:53:01;;;;;;;3.60;1.25;;;;;;;10.38;72.53;100240.31;10194616;28;20461;-64
2023/01/12 03:58:03;;;;;;;6.78;1.48;;;;;;;10.35;72.22;100246.91;10201385;28;20458;-64
2023/01/12 04:03:10;;;;;;;8.02;0.98;;;;;;;10.39;71.88;100245.53;10199276;28;20137;-65
2023/01/12 04:08:13;;;;;;;10.65;0.88;;;;;;;10.44;72.01;100224.31;10196782;28;20058;-64
2023/01/12 04:13:15;;;;;;;4.47;1.02;;;;;;;10.43;72.05;100222.66;10202156;28;20508;-63
2023/01/12 04:18:16;;;;;;;10.63;0.82;;;;;;;10.47;72.03;100225.84;10194873;29;20151;-63
2023/01/12 04:23:17;;;;;;;8.00;0.98;;;;;;;10.51;71.86;100216.41;10199164;28;20423;-63
2023/01/12 04:28:19;;;;;;;13.07;0.75;;;;;;;10.50;71.59;100204.81;10193141;28;20151;-64
2023/01/12 04:33:20;;;;;;;13.32;1.98;;;;;;;10.57;71.54;100198.72;10190219;28;20452;-65
2023/01/12 04:38:21;;;;;;;11.25;1.10;;;;;;;10.60;71.79;100203.72;10200117;28;20134;-64
2023/01/12 04:43:23;;;;;;;10.38;1.23;;;;;;;10.62;71.53;100202.50;10195914;28;20075;-65
2023/01/12 04:48:24;;;;;;;6.00;0.60;;;;;;;10.64;71.52;100189.75;10194701;28;20470;-64
2023/01/12 04:53:26;;;;;;;7.00;0.80;;;;;;;10.68;71.23;100190.22;10203035;29;20139;-64
2023/01/12 04:58:27;;;;;;;8.38;0.70;;;;;;;10.76;71.36;100181.25;10200344;28;20110;-66
2023/01/12 05:03:29;;;;;;;14.00;0.68;;;;;;;10.79;71.41;100175.53;10200029;28;20147;-65
2023/01/12 05:13:50;;;;;;;10.75;1.00;;;;;;;10.88;71.09;100156.44;10197160;28;20147;-67
2023/01/12 05:18:52;;;;;;;8.13;1.27;;;;;;;10.88;70.78;100151.06;10199145;28;20150;-63
2023/01/12 05:23:53;;;;;;;8.85;1.00;;;;;;;10.89;70.92;100146.50;10205262;28;20131;-64
2023/01/12 05:28:55;;;;;;;8.15;0.65;;;;;;;10.89;71.14;100138.44;10209820;28;20138;-64
2023/01/12 05:33:56;;;;;;;9.15;0.82;;;;;;;10.94;70.52;100135.19;10205505;28;20074;-65
2023/01/12 05:38:58;;;;;;;9.18;1.20;;;;;;;10.90;70.54;100126.69;10210922;28;20048;-65
2023/01/12 05:43:59;;;;;;;7.05;1.30;;;;;;;10.95;70.25;100118.06;10207472;28;20075;-64
2023/01/12 05:49:01;;;;;;;14.52;1.35;;;;;;;11.01;70.43;100110.06;10193925;28;20106;-65
2023/01/12 05:54:02;;;;;;;9.55;0.95;;;;;;;10.97;70.61;100114.16;10207785;28;20511;-64
2023/01/12 05:59:04;;;;;;;6.20;0.63;;;;;;;10.99;70.31;100114.81;10212208;28;22756;-65
2023/01/12 06:04:05;;;;;;;10.15;0.98;;;;;;;10.97;70.24;100107.94;10206852;28;20142;-64
2023/01/12 06:09:07;;;;;;;5.10;0.80;;;;;;;10.99;70.00;100095.16;10196339;28;20779;-64
2023/01/12 06:14:09;;;;;;;18.05;2.25;;;;;;;10.91;70.56;100088.81;10192496;29;20138;-64
2023/01/12 06:19:11;;;;;;;5.78;0.75;;;;;;;10.69;70.73;100081.69;10194292;28;20138;-64
2023/01/12 06:24:13;;;;;;;13.35;0.60;;;;;;;10.38;71.39;100073.75;10198301;28;20066;-62
2023/01/12 06:29:14;;;;;;;8.63;0.68;;;;;;;10.04;72.69;100078.50;10198588;29;20147;-63
2023/01/12 06:34:16;;;;;;;10.25;0.70;;;;;;;9.78;73.74;100076.19;10197336;28;20151;-64
2023/01/12 06:39:17;;;;;;;8.95;0.93;;;;;;;9.59;74.18;100066.72;10198226;28;20482;-63
2023/01/12 06:44:19;;;;;;;8.52;0.80;;;;;;;9.47;74.86;100077.00;10202024;28;20044;-63
2023/01/12 06:49:20;;;;;;;5.63;0.57;;;;;;;9.38;75.32;100058.44;10201841;28;20055;-63
2023/01/12 06:54:21;;;;;;;17.60;1.23;;;;;;;9.28;75.89;100035.38;10209029;28;20075;-62
2023/01/12 06:59:23;;;;;;;5.68;0.70;;;;;;;9.24;75.99;100042.09;10202824;28;20471;-63
2023/01/12 07:04:24;;;;;;;7.35;0.88;;;;;;;9.18;76.61;100040.09;10193855;28;20327;-62
2023/01/12 07:09:26;;;;;;;11.23;0.77;;;;;;;9.17;76.65;100045.66;10204391;28;20099;-61
2023/01/12 07:14:27;;;;;;;6.97;0.55;;;;;;;9.15;76.91;100045.81;10201405;29;20643;-62
2023/01/12 07:19:28;;;;;;;7.22;0.70;;;;;;;9.21;76.92;100041.63;10197922;28;20055;-62
2023/01/12 07:24:30;;;;;;;12.27;1.65;;;;;;;9.19;77.68;100028.38;10249574;28;20054;-63
2023/01/12 07:29:31;;;;;;;7.80;1.30;;;;;;;9.21;77.59;100025.53;10193949;28;20129;-67
2023/01/12 07:34:32;;;;;;;13.57;1.05;;;;;;;9.24;77.79;100023.34;10201153;28;20660;-70
2023/01/12 07:39:34;;;;;;;8.20;1.02;;;;;;;9.19;78.12;100006.91;10212560;28;20079;-72
2023/01/12 07:44:35;;;;;;;12.52;1.00;;;;;;;9.27;78.10;100003.38;10206682;28;20075;-70
2023/01/12 07:49:36;;;;;;;8.50;0.68;;;;;;;9.23;78.42;100005.56;10194891;28;20079;-64
2023/01/12 07:54:38;;;;;;;7.68;1.48;;;;;;;9.17;78.72;99998.22;10199559;28;20043;-67
2023/01/12 07:59:39;;;;;;;6.78;0.70;;;;;;;9.15;78.79;100020.88;10191523;28;20071;-69
2023/01/12 08:04:45;;;;;;;7.50;1.23;;;;;;;9.14;78.91;100017.31;10202112;28;20134;-67
2023/01/12 08:09:46;;;;;;;8.43;1.40;;;;;;;9.18;79.22;100015.97;10196539;28;20474;-68
2023/01/12 08:14:48;;;;;;;8.15;0.47;;;;;;;9.13;79.74;100029.06;10203462;28;20130;-67
2023/01/12 08:20:02;;;;;;;5.97;0.52;;;;;;;9.12;79.62;100038.13;10191695;28;20123;-66
2023/01/12 08:25:09;;;;;;;8.63;0.80;;;;;;;9.14;80.09;100033.41;10201772;28;20047;-66
2023/01/12 08:30:14;;;;;;;7.55;0.50;;;;;;;9.13;79.97;100035.25;10220778;28;20060;-65
2023/01/12 08:35:19;;;;;;;5.95;0.60;;;;;;;9.21;79.78;100031.72;10223635;28;20047;-62
2023/01/12 08:40:21;;;;;;;5.53;0.68;;;;;;;9.15;80.06;100024.38;10206506;28;20059;-60
2023/01/12 08:45:22;;;;;;;4.28;0.82;;;;;;;9.12;80.31;100020.22;10208407;29;20471;-59
2023/01/12 08:50:24;;;;;;;8.90;1.95;;;;;;;9.17;80.33;100029.56;10197069;28;20071;-62
2023/01/12 08:55:25;;;;;;;6.95;0.50;;;;;;;9.19;80.25;100032.91;10210089;28;20075;-60
2023/01/12 09:00:27;;;;;;;3.90;0.40;;;;;;;9.23;80.13;100042.28;10205368;28;20529;-60
2023/01/12 09:05:29;;;;;;;7.78;0.93;;;;;;;9.19;80.83;100036.41;10207777;28;20056;-59
2023/01/12 09:10:30;;;;;;;4.90;0.60;;;;;;;9.25;80.52;100050.97;10201109;28;20139;-60
2023/01/12 09:15:32;;;;;;;2.25;0.80;;;;;;;9.26;80.53;100037.41;10205250;28;20043;-60
2023/01/12 09:20:33;;;;;;;5.97;0.40;;;;;;;9.27;80.84;100041.75;10208381;28;20047;-59
2023/01/12 09:25:34;;;;;;;4.85;0.40;;;;;;;9.25;81.01;100046.44;10209337;28;20384;-59
2023/01/12 09:30:36;;;;;;;5.65;0.73;;;;;;;9.29;80.81;100042.41;10221592;28;20111;-61
2023/01/12 09:35:37;;;;;;;3.55;0.50;;;;;;;9.35;81.06;100040.03;10215625;28;20086;-61
2023/01/12 09:40:43;;;;;;;2.47;0.35;;;;;;;9.33;81.41;100038.34;10220524;28;20286;-60
2023/01/12 09:51:15;;;;;;;1.25;0.20;;;;;;;9.38;81.29;100035.16;10216266;28;20658;-60
2023/01/12 09:56:41;;;;;;;4.25;0.70;;;;;;;9.38;81.60;100050.41;10210543;28;20085;-59
2023/01/12 10:01:42;;;;;;;9.18;1.48;;;;;;;9.37;81.75;100046.88;10212549;28;20082;-59
2023/01/12 10:06:44;;;;;;;3.13;0.20;;;;;;;9.42;81.87;100032.94;10206034;28;20586;-59
2023/01/12 10:12:13;;;;;;;1.50;0.30;;;;;;;9.39;81.58;100050.22;10207563;28;20078;-58
2023/01/12 10:17:37;;;;;;;2.08;0.32;;;;;;;9.49;81.47;100040.09;10210470;28;20574;-59
2023/01/12 10:22:55;;;;;;;5.00;0.40;;;;;;;9.47;81.68;100039.44;10208558;28;20498;-60
2023/01/12 10:27:58;;;;;;;4.40;0.20;;;;;;;9.53;81.80;100038.75;10209983;28;20134;-62
2023/01/12 10:33:14;;;;;;;3.45;0.22;;;;;;;9.51;81.78;100048.00;10215735;28;20046;-59
2023/01/12 10:38:25;;;;;;;0.80;0.55;;;;;;;9.50;82.14;100041.78;10206496;28;20090;-60
2023/01/12 10:43:30;;;;;;;4.75;0.77;;;;;;;9.60;81.97;100046.09;10214081;28;20055;-59
2023/01/12 10:48:32;;;;;;;3.60;0.30;;;;;;;9.64;81.88;100037.50;10207773;28;20106;-59
2023/01/12 10:53:41;;;;;;;2.13;0.82;;;;;;;9.67;82.05;100036.31;10204000;28;20071;-59
2023/01/12 10:58:43;;;;;;;4.78;0.20;;;;;;;9.65;82.07;100024.94;10201492;28;20145;-59
2023/01/12 11:03:48;;;;;;;10.43;0.60;;;;;;;9.64;82.17;100028.63;10197426;28;20139;-59
2023/01/12 11:08:49;;;;;;;4.28;0.50;;;;;;;9.73;82.19;100035.59;10201908;28;20079;-59
2023/01/12 11:13:54;;;;;;;2.67;0.30;;;;;;;9.70;82.17;100027.91;10204794;28;20071;-61
2023/01/12 11:19:11;;;;;;;7.43;1.13;;;;;;;9.68;82.45;100025.41;10197035;28;20467;-59
2023/01/12 11:24:34;;;;;;;5.77;0.70;;;;;;;9.71;82.37;100026.88;10205021;28;20087;-63
2023/01/12 11:29:51;;;;;;;3.80;0.40;;;;;;;9.82;82.40;100017.59;10208099;28;20377;-62
2023/01/12 11:35:23;;;;;;;4.40;0.70;;;;;;;9.82;82.42;100025.66;10205705;28;20138;-62
2023/01/12 11:40:33;;;;;;;3.38;0.63;;;;;;;9.79;82.37;100029.50;10187823;28;20047;-60
2023/01/12 11:45:49;;;;;;;2.15;0.60;;;;;;;9.76;82.46;100007.59;10198756;28;20059;-59
2023/01/12 11:50:52;;;;;;;0.88;0.47;;;;;;;9.78;82.50;100003.69;10210820;28;20091;-58
2023/01/12 11:56:16;;;;;;;4.40;0.40;;;;;;;9.84;82.41;100004.84;10197685;28;20455;-59
2023/01/12 12:01:27;;;;;;;7.88;1.25;;;;;;;9.89;82.26;99989.00;10204841;28;20572;-58
2023/01/12 12:06:36;;;;;;;5.85;0.60;;;;;;;9.88;82.61;99985.50;10207014;28;20058;-58
2023/01/12 12:11:49;;;;;;;1.02;0.30;;;;;;;9.92;82.39;99968.00;10198065;28;20404;-65
2023/01/12 12:17:20;;;;;;;1.15;0.35;;;;;;;9.90;82.60;99966.53;10198216;28;20138;-61
2023/01/12 12:22:35;;;;;;;2.78;0.40;;;;;;;9.83;83.00;99947.59;10170871;28;20115;-63
2023/01/12 12:28:03;;;;;;;3.95;0.30;;;;;;;9.83;83.25;99957.50;10186991;28;20134;-59
2023/01/12 12:33:33;;;;;;;0.40;0.20;;;;;;;9.84;83.23;99954.66;10203292;28;20178;-59
2023/01/12 12:39:05;;;;;;;1.20;0.65;;;;;;;9.84;83.25;99959.19;10207811;28;20489;-58
2023/01/12 12:50:11;;;;;;;0.98;0.30;;;;;;;9.93;83.40;99955.41;10205336;28;20046;-59
2023/01/12 12:55:13;;;;;;;1.45;0.80;;;;;;;9.93;83.55;99947.34;10215251;28;20059;-61
2023/01/12 13:00:41;;;;;;;1.08;0.30;;;;;;;9.93;83.44;99944.66;10205605;28;20067;-61
2023/01/12 13:05:45;;;;;;;1.33;0.47;;;;;;;9.98;83.46;99941.47;10200617;28;20039;-59
2023/01/12 13:10:49;;;;;;;0.57;0.35;;;;;;;10.02;83.24;99942.75;10196378;28;20071;-59
2023/01/12 13:16:14;;;;;;;1.55;0.30;;;;;;;10.02;83.10;99934.69;10202206;28;20134;-59
2023/01/12 13:21:41;;;;;;;2.83;0.30;;;;;;;10.02;83.34;99945.44;10204342;29;20084;-60
2023/01/12 13:26:44;;;;;;;1.60;0.30;;;;;;;10.03;83.42;99945.28;10196739;28;20086;-59
2023/01/12 13:31:45;;;;;;;2.90;0.35;;;;;;;10.03;83.52;99945.28;10200985;28;20459;-61
2023/01/12 13:37:09;;;;;;;2.03;0.22;;;;;;;10.10;83.19;99942.69;10209612;28;20075;-60
2023/01/12 13:47:42;;;;;;;0.88;0.28;;;;;;;10.15;83.23;99940.28;10198809;28;20102;-59
2023/01/12 13:52:55;;;;;;;1.95;0.30;;;;;;;10.13;83.46;99920.84;10206739;28;20574;-59
2023/01/12 13:58:00;;;;;;;1.95;0.22;;;;;;;10.12;83.38;99927.22;10212308;28;20062;-59
2023/01/12 14:03:03;;;;;;;3.08;0.20;;;;;;;10.18;83.53;99925.66;10207763;28;20942;-58
2023/01/12 14:08:23;;;;;;;0.85;0.10;;;;;;;10.20;83.17;99945.94;10210711;28;20419;-58
2023/01/12 14:13:43;;;;;;;0.22;0.10;;;;;;;10.17;83.25;99945.44;10205019;28;20111;-58
2023/01/12 14:18:47;;;;;;;2.03;0.10;;;;;;;10.18;83.25;99945.28;10198599;28;20342;-60
2023/01/12 14:23:48;;;;;;;0.10;0.10;;;;;;;10.23;83.25;99942.88;10214615;28;20047;-59
2023/01/12 14:28:51;;;;;;;0.65;0.10;;;;;;;10.20;83.15;99940.56;10199064;28;20066;-58
2023/01/12 14:33:55;;;;;;;0.45;0.10;;;;;;;10.27;83.21;99929.94;10203407;29;20116;-59
2023/01/12 14:38:58;;;;;;;1.45;0.17;;;;;;;10.25;83.01;99927.41;10211576;29;20044;-60
2023/01/12 14:49:30;;;;;;;1.95;0.10;;;;;;;10.26;83.14;99933.63;10210880;28;20083;-59
2023/01/12 14:54:33;;;;;;;0.20;0.20;;;;;;;10.28;83.34;99929.72;10205339;28;20694;-59
2023/01/12 14:59:42;;;;;;;2.83;0.20;;;;;;;10.32;82.93;99931.03;10206016;28;20060;-61
2023/01/12 15:05:04;;;;;;;0.25;0.10;;;;;;;10.37;83.01;99926.97;10202135;28;20070;-59
2023/01/12 15:10:08;;;;;;;0.08;0.08;;;;;;;10.39;82.87;99927.66;10191958;28;20725;-61
2023/01/12 15:15:22;;;;;;;0.28;0.10;;;;;;;10.42;82.74;99922.72;10207656;28;20594;-59
2023/01/12 15:25:46;;;;;;;0.10;0.10;;;;;;;10.49;82.40;99917.44;10207781;28;20071;-62
2023/01/12 15:30:47;;;;;;;0.22;0.22;;;;;;;10.50;82.31;99921.78;10201947;28;20862;-59
2023/01/12 15:35:49;;;;;;;2.40;0.10;;;;;;;10.57;82.42;99933.47;10211285;28;20138;-61
2023/01/12 15:40:50;;;;;;;0.10;0.10;;;;;;;10.60;82.08;99927.69;10214762;29;20138;-58
2023/01/12 15:45:53;;;;;;;0.47;0.10;;;;;;;10.66;81.84;99918.91;10209330;28;20074;-58
2023/01/12 15:50:55;;;;;;;0.15;0.10;;;;;;;10.67;82.19;99925.13;10217989;28;20062;-59
2023/01/12 15:55:56;;;;;;;0.10;0.10;;;;;;;10.69;82.18;99928.47;10201935;28;20142;-61
2023/01/12 16:00:58;;;;;;;0.55;0.10;;;;;;;10.73;82.22;99924.38;10194549;28;20043;-64
2023/01/12 16:05:59;;;;;;;0.00;0.00;;;;;;;10.77;81.93;99933.72;10194976;29;20495;-65
2023/01/12 16:11:08;;;;;;;1.42;0.10;;;;;;;10.77;81.73;99914.91;10195626;28;20084;-64
2023/01/12 16:16:14;;;;;;;1.58;0.30;;;;;;;10.78;81.68;99921.97;10206298;28;20078;-62
2023/01/12 16:21:18;;;;;;;2.00;0.30;;;;;;;10.87;81.69;99914.59;10206050;28;20058;-62
2023/01/12 16:26:19;;;;;;;1.02;0.20;;;;;;;10.90;81.20;99923.13;10208316;28;20083;-63
2023/01/12 16:31:21;;;;;;;1.55;0.10;;;;;;;10.92;81.13;99914.88;10202040;28;20087;-62
2023/01/12 16:36:22;;;;;;;0.40;0.10;;;;;;;10.91;81.04;99908.66;10206037;28;20060;-63
2023/01/12 16:41:24;;;;;;;0.40;0.20;;;;;;;10.99;80.96;99912.25;10200072;28;20135;-63
2023/01/12 16:46:25;;;;;;;2.47;0.20;;;;;;;11.02;80.58;99909.19;10197680;28;20104;-64
2023/01/12 16:51:26;;;;;;;0.52;0.13;;;;;;;11.00;80.72;99898.63;10202482;28;20115;-63
2023/01/12 16:56:28;;;;;;;0.95;0.10;;;;;;;10.99;80.65;99893.44;10204133;28;20420;-63
2023/01/12 17:01:29;;;;;;;1.38;0.20;;;;;;;11.00;80.68;99890.56;10206638;28;20083;-63
2023/01/12 17:06:31;;;;;;;3.83;0.10;;;;;;;11.03;80.24;99875.91;10201718;28;20079;-62
2023/01/12 17:11:34;;;;;;;0.20;0.20;;;;;;;11.07;80.03;99880.69;10203612;28;20048;-63
2023/01/12 17:16:35;;;;;;;0.30;0.30;;;;;;;11.10;79.96;99876.81;10203641;28;20432;-62
2023/01/12 17:21:37;;;;;;;0.85;0.40;;;;;;;11.06;80.30;99881.72;10205545;28;20047;-63
2023/01/12 17:26:39;;;;;;;1.77;0.20;;;;;;;11.09;80.32;99888.56;10202877;28;20059;-63
2023/01/12 17:31:41;;;;;;;1.23;0.17;;;;;;;11.09;80.01;99885.88;10197590;28;20051;-64
2023/01/12 17:36:42;;;;;;;0.77;0.20;;;;;;;11.04;80.18;99889.16;10201125;29;20558;-61
2023/01/12 17:47:04;;;;;;;0.43;0.20;;;;;;;11.04;79.96;99899.91;10208278;28;20505;-64
2023/01/12 17:52:05;;;;;;;0.20;0.10;;;;;;;11.05;79.24;99896.19;10204840;28;20083;-65
2023/01/12 17:57:07;;;;;;;0.82;0.15;;;;;;;11.04;79.80;99904.47;10210339;28;20083;-63
2023/01/12 18:02:10;;;;;;;0.20;0.10;;;;;;;10.94;79.92;99904.78;10210980;28;20066;-64
2023/01/12 18:07:11;;;;;;;0.17;0.10;;;;;;;10.93;80.07;99895.03;10210182;28;20202;-64
2023/01/12 18:12:15;;;;;;;1.55;0.20;;;;;;;10.88;79.67;99897.44;10206666;28;20126;-65
2023/01/12 18:17:16;;;;;;;2.78;0.57;;;;;;;10.88;80.30;99900.97;10209688;28;20047;-64
2023/01/12 18:22:18;;;;;;;0.60;0.30;;;;;;;10.84;80.29;99907.75;10194334;28;20118;-64
2023/01/12 18:27:19;;;;;;;0.68;0.40;;;;;;;10.89;79.88;99904.50;10206629;28;20086;-64
2023/01/12 18:32:21;;;;;;;1.23;0.40;;;;;;;10.90;80.01;99895.44;10200644;28;20131;-64
2023/01/12 18:37:22;;;;;;;2.85;0.30;;;;;;;10.87;80.21;99903.84;10189850;28;20134;-62
2023/01/12 18:53:23;;;;;;;1.05;0.40;;;;;;;10.91;80.17;99894.38;10202713;28;20455;-61
2023/01/12 18:58:28;;;;;;;1.40;0.20;;;;;;;10.84;80.17;99872.81;10198546;28;20452;-62
2023/01/12 19:03:29;;;;;;;1.95;0.30;;;;;;;10.85;80.19;99874.47;10207674;28;20131;-63
2023/01/12 19:19:11;;;;;;;1.10;0.30;;;;;;;10.90;80.71;99869.34;10201248;28;20135;-61
2023/01/12 19:29:34;;;;;;;1.35;0.30;;;;;;;10.84;80.68;99859.38;10193202;28;20135;-62
2023/01/12 19:34:35;;;;;;;2.88;0.47;;;;;;;10.89;80.20;99856.09;10201458;29;20107;-63
2023/01/12 19:40:01;;;;;;;1.98;0.30;;;;;;;10.90;80.16;99845.16;10196135;28;20526;-62
2023/01/12 19:45:05;;;;;;;1.33;0.65;;;;;;;10.96;80.07;99848.94;10192888;29;20394;-61
2023/01/12 19:50:08;;;;;;;1.27;0.20;;;;;;;10.96;80.28;99848.94;10195413;28;20079;-61
2023/01/12 19:55:12;;;;;;;0.85;0.20;;;;;;;10.99;80.00;99837.78;10199080;28;20059;-63
2023/01/12 20:00:15;;;;;;;0.50;0.20;;;;;;;11.03;80.24;99822.09;10196957;28;20051;-63
2023/01/12 20:05:21;;;;;;;1.23;0.20;;;;;;;11.09;79.74;99819.47;10197852;28;20399;-63
2023/01/12 20:10:23;;;;;;;1.35;0.10;;;;;;;11.17;79.76;99817.69;10178062;28;20170;-64
2023/01/12 20:15:24;;;;;;;0.40;0.30;;;;;;;11.18;79.65;99813.97;10176076;29;20083;-63
2023/01/12 20:20:26;;;;;;;1.33;0.20;;;;;;;11.20;79.91;99803.84;10199144;28;20051;-63
2023/01/12 20:25:28;;;;;;;0.90;0.10;;;;;;;11.20;79.49;99803.84;10192088;28;20071;-63
2023/01/12 20:30:29;;;;;;;0.40;0.13;;;;;;;11.24;79.48;99791.69;10196709;28;20114;-62
2023/01/12 20:35:45;;;;;;;0.30;0.20;;;;;;;11.31;79.12;99804.16;10194694;28;20050;-64
2023/01/12 20:40:46;;;;;;;;;;;;;;;11.29;79.46;99806.22;10191582;28;20134;-64
2023/01/12 20:45:48;;;;;;;3.60;0.20;;;;;;;11.27;79.30;99800.16;10195758;28;20377;-62
2023/01/12 20:50:50;;;;;;;0.88;0.20;;;;;;;11.10;80.18;99801.50;10187095;28;20058;-63
2023/01/12 20:55:52;;;;;;;0.40;0.20;;;;;;;10.94;80.29;99801.72;10189383;28;20048;-63
2023/01/12 21:00:53;;;;;;;1.40;0.20;;;;;;;10.80;81.07;99788.19;10183474;28;20051;-63
2023/01/12 21:05:55;;;;;;;1.90;0.22;;;;;;;10.69;81.06;99794.06;10197617;29;20074;-63
2023/01/12 21:10:57;;;;;;;4.25;0.30;;;;;;;10.57;81.27;99787.50;10205116;28;20138;-62
2023/01/12 21:16:00;;;;;;;1.58;0.40;;;;;;;10.50;81.71;99774.84;10198758;28;20056;-62
2023/01/12 21:21:01;;;;;;;0.50;0.20;;;;;;;10.48;81.45;99776.03;10200538;28;20162;-62
2023/01/12 21:26:06;;;;;;;2.28;0.30;;;;;;;10.50;81.42;99774.00;10204001;28;20052;-61
2023/01/12 21:31:10;;;;;;;2.55;0.70;;;;;;;10.45;81.59;99769.19;10200383;28;20060;-61
2023/01/12 21:36:12;;;;;;;35.65;5.32;;;;;;;10.42;82.09;99768.72;10202263;28;20590;-61
2023/01/12 21:41:14;;;;;;;2.85;0.85;;;;;;;10.44;81.70;99755.94;10198253;28;20055;-60
2023/01/12 21:46:16;;;;;;;2.13;0.50;;;;;;;10.48;82.04;99749.97;10202273;28;20232;-60
2023/01/12 21:51:17;;;;;;;0.70;0.30;;;;;;;10.41;82.22;99738.34;10201711;28;20046;-62
2023/01/12 21:56:19;;;;;;;3.58;0.40;;;;;;;10.42;82.16;99740.00;10197580;28;20159;-63
2023/01/12 22:01:20;;;;;;;1.38;0.30;;;;;;;10.45;82.02;99731.56;10189887;28;20063;-61
2023/01/12 22:06:22;;;;;;;1.63;0.65;;;;;;;10.46;82.34;99730.53;10191635;28;20534;-62
2023/01/12 22:11:23;;;;;;;2.05;0.30;;;;;;;10.47;82.24;99721.47;10199859;28;20079;-61
2023/01/12 22:16:25;;;;;;;1.33;0.40;;;;;;;10.44;82.46;99716.47;10191597;28;20071;-61
2023/01/12 22:21:26;;;;;;;3.28;0.38;;;;;;;10.42;82.41;99718.50;10203651;28;20064;-60
2023/01/12 22:26:29;;;;;;;0.82;0.30;;;;;;;10.46;82.25;99716.28;10202292;28;20159;-60
2023/01/12 22:31:30;;;;;;;1.85;0.30;;;;;;;10.46;82.16;99708.22;10214058;28;20043;-61
2023/01/12 22:36:39;;;;;;;3.08;0.30;;;;;;;10.45;82.03;99711.94;10207859;28;20043;-61
2023/01/12 22:41:41;;;;;;;2.83;0.25;;;;;;;10.46;82.15;99717.09;10199919;28;20090;-61
2023/01/12 22:46:42;;;;;;;2.00;0.93;;;;;;;10.50;82.08;99720.25;10197532;28;20090;-62
2023/01/12 22:51:43;;;;;;;0.80;0.35;;;;;;;10.50;82.11;99714.88;10200096;28;20090;-62
2023/01/12 22:56:45;;;;;;;2.90;0.40;;;;;;;10.56;82.18;99713.28;10202123;28;20139;-61
2023/01/12 23:01:46;;;;;;;0.60;0.20;;;;;;;10.54;82.11;99715.31;10199651;28;20102;-60
2023/01/12 23:06:48;;;;;;;0.60;0.43;;;;;;;10.52;82.13;99700.25;10206715;28;20052;-60
2023/01/12 23:11:49;;;;;;;2.60;0.22;;;;;;;10.52;82.20;99708.31;10210660;28;20061;-61
2023/01/12 23:16:51;;;;;;;1.98;0.20;;;;;;;10.51;82.51;99703.94;10211027;28;20585;-61
2023/01/12 23:21:53;;;;;;;2.80;0.20;;;;;;;10.52;82.00;99697.56;10198367;28;20479;-61
2023/01/12 23:26:54;;;;;;;1.23;0.20;;;;;;;10.56;82.32;99697.16;10201488;28;20166;-61
2023/01/12 23:31:56;;;;;;;4.13;0.63;;;;;;;10.56;82.01;99697.97;10199042;28;20092;-62
2023/01/12 23:36:57;;;;;;;0.90;0.30;;;;;;;10.64;81.91;99691.63;10205694;28;20116;-61
2023/01/12 23:41:59;;;;;;;1.30;0.30;;;;;;;10.59;82.23;99688.72;10197207;28;20048;-61
2023/01/12 23:47:02;;;;;;;1.98;0.32;;;;;;;10.60;82.15;99671.56;10197635;28;20147;-60
2023/01/12 23:52:04;;;;;;;1.38;0.40;;;;;;;10.61;82.17;99675.91;10203094;28;20047;-62
2023/01/12 23:57:06;;;;;;;2.50;0.30;;;;;;;10.64;82.10;99665.63;10214965;28;20068;-61
